Grasten, Denmark
Current Conditions -  °F | °C
As of 12:20 PM on Thursday 27 Nov 2014 (Local Time) from ETGG Reporting Station
Broken Clouds Broken Clouds  
Wind Chill: 34°   Ceiling: 22000
Heat Index: 43°   Visibility: 6mi
Dew Point: 36°   Wind: 22mph
Humidity: 76%   Direction: 120°ESE
Pressure: 29.97"   Gusts: NA
Location:  54.92°N, 9.6°E
Report Text: ETGG 271120Z 12019KT 9999 FEW015 BKN220 06/02 Q1015 BLU+
Loading
Personal Weather Stations






























Interactive Weather Map New forecast layout! Learn more

10-Day Weather Forecast

Advertisements
Track Severe Weather on mobile